Lashmeet, West Virginia
Current Conditions -  °F | °C
As of 4:52 PM on Monday 26 Jan 2015 (Local Time) from KBLF Reporting Station
Light Snow Light Snow  
Wind Chill: 15°   Ceiling: 500
Heat Index: 26°   Visibility: 7mi
Dew Point: 22°   Wind: 13mph
Humidity: 84%   Direction: 270°W
Pressure: 29.69"   Gusts: 24mph
Location:  37.42°N, 81.2°W
Report Text: KBLF 262152Z AUTO 27011G21KT 7SM -SN OVC005 M03/M06 A2969 RMK AO2 SLP067 P0000 T10331056
Loading
Personal Weather Stations






























Interactive Weather Map New forecast layout! Learn more

10-Day Weather Forecast

Advertisements
Track Severe Weather on mobile